Terminal Aerodrome Forecast
Issued by NWS

Home | Current Version | Previous Version | Text Only | Print | Product List | Glossary On
Versions: 1 2 3 4 5 6 7 8 9 10 11 12 13 14 15 16 17 18 19
608
FTUS43 KICT 231732
TAFCNU
TAF
KCNU 231732Z 2318/2418 19012KT P6SM SKC
     FM240000 14008KT P6SM SCT150
     FM241300 16012KT P6SM SCT025 BKN080=

USA.gov is the U.S. government's official web portal to all federal, state and local government web resources and services.